Tomkins Cove, New York
Current Conditions -  °F | °C
As of 11:45 AM on Monday 22 Dec 2014 (Local Time) from KSWF Reporting Station
Haze Haze  
Wind Chill: 34°   Ceiling: 800
Heat Index: 34°   Visibility: 5mi
Dew Point: 32°   Wind: 0mph
Humidity: 93%   Direction: NA
Pressure: 30.32"   Gusts: NA
Location:  41.26°N, 73.98°W
Report Text: KSWF 221645Z 00000KT 5SM BR OVC008 01/00 A3032
Loading
Personal Weather Stations






























Interactive Weather Map New forecast layout! Learn more

10-Day Weather Forecast

Advertisements
Track Severe Weather on mobile